createdAt,value
2018-09-19T00:00:38.170Z,31.30
2018-09-19T00:03:10.841Z,33.58
2018-09-19T00:05:43.467Z,37.53
2018-09-19T00:08:16.156Z,28.70
2018-09-19T00:10:48.819Z,31.25
2018-09-19T00:13:22.351Z,36.45
2018-09-19T00:15:55.001Z,33.75
2018-09-19T00:18:27.638Z,29.57
2018-09-19T00:21:00.335Z,38.65
2018-09-19T00:23:33.052Z,31.60
2018-09-19T00:26:05.660Z,31.68
2018-09-19T00:28:38.281Z,37.60
2018-09-19T00:31:10.879Z,32.50
2018-09-19T00:33:43.517Z,37.45
2018-09-19T00:36:16.140Z,31.25
2018-09-19T00:38:48.875Z,41.65
2018-09-19T00:41:21.585Z,48.78
2018-09-19T00:43:54.219Z,33.25
2018-09-19T00:46:27.783Z,32.40
2018-09-19T00:49:00.685Z,33.75
2018-09-19T00:51:33.346Z,44.20
2018-09-19T00:54:05.669Z,47.25
2018-09-19T00:56:38.386Z,44.48
2018-09-19T00:59:11.034Z,37.10
2018-09-19T01:01:43.690Z,47.45
2018-09-19T01:04:19.549Z,37.30
2018-09-19T01:06:53.850Z,41.28
2018-09-19T01:09:28.224Z,47.65
2018-09-19T01:12:00.891Z,46.05
2018-09-19T01:14:34.187Z,40.90
2018-09-19T01:17:07.532Z,40.40
2018-09-19T01:19:40.372Z,46.60
2018-09-19T01:22:13.686Z,37.65
2018-09-19T01:24:46.377Z,44.23
2018-09-19T01:27:21.475Z,41.08
2018-09-19T01:29:54.119Z,37.48
2018-09-19T01:32:26.746Z,46.20
2018-09-19T01:34:59.342Z,38.05
2018-09-19T01:37:32.884Z,43.35
2018-09-19T01:40:05.704Z,38.15
2018-09-19T01:42:38.398Z,38.10
2018-09-19T01:45:13.097Z,32.00
2018-09-19T01:47:45.873Z,35.88
2018-09-19T01:50:19.372Z,30.45
2018-09-19T01:52:51.981Z,28.30
2018-09-19T01:55:27.808Z,26.10
2018-09-19T01:58:01.364Z,20.48
2018-09-19T02:00:34.993Z,34.90
2018-09-19T02:03:08.640Z,40.17
2018-09-19T02:05:41.320Z,30.80
2018-09-19T02:08:15.076Z,38.48
2018-09-19T02:10:47.780Z,21.05
2018-09-19T02:13:21.655Z,27.90
2018-09-19T02:15:54.904Z,29.87
2018-09-19T02:18:28.132Z,27.45
2018-09-19T02:21:00.693Z,26.87
2018-09-19T02:23:33.328Z,24.20
2018-09-19T02:26:08.107Z,27.05
2018-09-19T02:28:43.856Z,32.23
2018-09-19T02:31:16.383Z,30.35
2018-09-19T02:33:49.067Z,38.13
2018-09-19T02:36:25.696Z,31.15
2018-09-19T02:38:59.391Z,39.90
2018-09-19T02:41:32.015Z,32.08
2018-09-19T02:44:04.708Z,32.20
2018-09-19T02:46:39.446Z,26.33
2018-09-19T02:49:12.448Z,30.55
2018-09-19T02:51:45.099Z,33.10
2018-09-19T02:54:17.713Z,31.23
2018-09-19T02:56:50.398Z,33.80
2018-09-19T02:59:23.022Z,24.18
2018-09-19T03:01:56.605Z,29.18
2018-09-19T03:04:29.309Z,24.67
2018-09-19T03:07:01.947Z,38.08
2018-09-19T03:09:36.091Z,32.13
2018-09-19T03:12:11.032Z,35.05
2018-09-19T03:14:43.718Z,31.68
2018-09-19T03:17:18.556Z,26.97
2018-09-19T03:19:51.294Z,36.58
2018-09-19T03:22:23.964Z,28.07
2018-09-19T03:24:57.221Z,31.35
2018-09-19T03:27:30.334Z,32.30
2018-09-19T03:30:03.349Z,37.20
2018-09-19T03:32:37.121Z,34.63
2018-09-19T03:35:09.820Z,29.30
2018-09-19T03:37:43.496Z,31.20
2018-09-19T03:40:16.478Z,49.83
2018-09-19T03:42:49.986Z,28.12
2018-09-19T03:45:22.720Z,38.60
2018-09-19T03:47:55.408Z,32.10
2018-09-19T03:50:28.697Z,38.65
2018-09-19T03:53:02.399Z,27.50
2018-09-19T03:55:35.633Z,37.28
2018-09-19T03:58:08.535Z,26.68
2018-09-19T04:00:41.206Z,38.65
2018-09-19T04:03:23.928Z,32.85
2018-09-19T04:05:56.736Z,35.20
2018-09-19T04:08:39.522Z,39.42
2018-09-19T04:11:12.326Z,40.08
2018-09-19T04:13:45.107Z,38.35
2018-09-19T04:16:18.678Z,30.80
2018-09-19T04:18:51.496Z,39.00
2018-09-19T04:21:24.213Z,36.42
2018-09-19T04:24:08.223Z,37.67
2018-09-19T04:26:42.967Z,31.27
2018-09-19T04:29:17.662Z,36.88
2018-09-19T04:31:52.001Z,40.23
2018-09-19T04:34:25.710Z,46.50
2018-09-19T04:37:02.261Z,44.23
2018-09-19T04:39:35.129Z,46.05
2018-09-19T04:42:09.226Z,45.08
2018-09-19T04:45:06.253Z,41.08
2018-09-19T04:47:39.652Z,47.70
2018-09-19T04:50:20.381Z,50.20
2018-09-19T04:52:53.798Z,55.70
2018-09-19T04:55:26.533Z,35.23
2018-09-19T04:57:59.867Z,44.83
2018-09-19T05:00:35.697Z,49.45
2018-09-19T05:03:08.823Z,54.95
2018-09-19T05:05:42.405Z,54.55
2018-09-19T05:08:16.449Z,46.37
2018-09-19T05:10:49.271Z,45.48
2018-09-19T05:13:22.965Z,45.83
2018-09-19T05:15:55.773Z,47.53
2018-09-19T05:18:29.640Z,46.40
2018-09-19T05:21:05.786Z,41.33
2018-09-19T05:23:40.838Z,50.78
2018-09-19T05:26:13.847Z,42.95
2018-09-19T05:28:49.645Z,46.33
2018-09-19T05:31:23.378Z,47.80
2018-09-19T05:38:34.192Z,40.55
2018-09-19T05:41:07.369Z,39.45
2018-09-19T05:43:40.830Z,44.30
2018-09-19T05:46:15.187Z,43.28
2018-09-19T05:48:47.930Z,42.35
2018-09-19T05:51:27.331Z,57.55
2018-09-19T05:54:00.008Z,45.45
2018-09-19T05:56:32.866Z,49.00
2018-09-19T05:59:36.945Z,38.90
2018-09-19T06:02:11.715Z,33.60
2018-09-19T06:04:45.197Z,44.18
2018-09-19T06:08:57.493Z,43.60
2018-09-19T06:11:32.856Z,47.30
2018-09-19T06:14:06.654Z,41.37
2018-09-19T06:16:39.483Z,43.58
2018-09-19T06:19:12.225Z,40.25
2018-09-19T06:21:44.980Z,40.28
2018-09-19T06:24:17.662Z,43.80
2018-09-19T06:26:51.008Z,52.25
2018-09-19T06:29:23.729Z,26.93
2018-09-19T06:31:56.408Z,47.30
2018-09-19T06:34:29.041Z,34.88
2018-09-19T06:37:01.705Z,35.05
2018-09-19T06:39:35.286Z,41.73
2018-09-19T06:42:07.966Z,40.60
2018-09-19T06:44:42.288Z,46.83
2018-09-19T06:47:15.471Z,46.65
2018-09-19T06:49:48.281Z,44.90
2018-09-19T06:52:21.249Z,37.90
2018-09-19T06:54:54.018Z,36.17
2018-09-19T06:57:26.892Z,42.83
2018-09-19T07:00:01.179Z,35.70
2018-09-19T07:02:34.025Z,41.88
2018-09-19T07:05:07.838Z,42.05
2018-09-19T07:07:40.748Z,34.30
2018-09-19T07:10:13.642Z,39.00
2018-09-19T07:12:46.466Z,39.18
2018-09-19T07:15:19.893Z,37.93
2018-09-19T07:17:52.731Z,43.02
2018-09-19T07:20:25.528Z,40.25
2018-09-19T07:23:00.992Z,47.65
2018-09-19T07:25:33.834Z,35.40
2018-09-19T07:28:07.010Z,37.67
2018-09-19T07:30:39.866Z,29.63
2018-09-19T07:33:13.193Z,41.65
2018-09-19T07:35:46.390Z,35.43
2018-09-19T07:38:19.305Z,44.30
2018-09-19T07:40:52.428Z,54.88
2018-09-19T07:43:26.636Z,37.10
2018-09-19T07:46:00.963Z,35.33
2018-09-19T07:48:33.816Z,36.50
2018-09-19T07:51:06.618Z,41.42
2018-09-19T07:53:39.643Z,38.33
2018-09-19T07:56:12.468Z,42.40
2018-09-19T07:58:45.412Z,46.92
2018-09-19T08:01:19.092Z,41.58
2018-09-19T08:03:51.749Z,41.35
2018-09-19T08:06:24.554Z,40.38
2018-09-19T08:08:57.897Z,32.13
2018-09-19T08:11:30.699Z,42.10
2018-09-19T08:14:03.851Z,33.60
2018-09-19T08:16:36.745Z,29.75
2018-09-19T08:19:09.623Z,42.53
2018-09-19T08:21:43.237Z,38.55
2018-09-19T08:24:16.047Z,34.23
2018-09-19T08:26:49.591Z,33.92
2018-09-19T08:29:22.776Z,36.38
2018-09-19T08:31:55.399Z,40.12
2018-09-19T08:34:28.089Z,32.20
2018-09-19T08:37:01.021Z,39.05
2018-09-19T08:39:34.056Z,37.23
2018-09-19T08:42:06.880Z,34.58
2018-09-19T08:44:39.929Z,48.13
2018-09-19T08:47:12.681Z,40.45
2018-09-19T08:49:45.461Z,35.33
2018-09-19T08:52:18.171Z,34.03
2018-09-19T08:54:51.334Z,38.42
2018-09-19T08:57:23.989Z,39.67
2018-09-19T08:59:56.701Z,38.80
2018-09-19T09:02:29.387Z,38.30
2018-09-19T09:05:02.734Z,39.38
2018-09-19T09:07:35.783Z,34.67
2018-09-19T09:10:08.453Z,41.25
2018-09-19T09:12:41.243Z,36.93
2018-09-19T09:15:13.926Z,34.18
2018-09-19T09:17:46.531Z,27.27
2018-09-19T09:20:19.272Z,46.55
2018-09-19T09:22:51.967Z,35.68
2018-09-19T09:25:24.568Z,39.73
2018-09-19T09:27:57.304Z,35.03
2018-09-19T09:30:29.944Z,36.05
2018-09-19T09:33:02.866Z,34.27
2018-09-19T09:35:35.899Z,40.50
2018-09-19T09:38:09.081Z,40.55
2018-09-19T09:40:41.800Z,35.50
2018-09-19T09:43:14.628Z,35.65
2018-09-19T09:45:47.552Z,39.85
2018-09-19T09:48:20.655Z,38.55
2018-09-19T09:50:53.779Z,36.95
2018-09-19T09:53:26.527Z,36.38
2018-09-19T09:55:59.355Z,33.48
2018-09-19T09:58:32.033Z,40.23
2018-09-19T10:01:04.925Z,36.08
2018-09-19T10:03:37.624Z,34.85
2018-09-19T10:06:10.312Z,30.82
2018-09-19T10:08:44.234Z,45.48
2018-09-19T10:11:17.953Z,46.00
2018-09-19T10:13:50.733Z,36.90
2018-09-19T10:16:24.315Z,46.85
2018-09-19T10:18:57.074Z,37.45
2018-09-19T10:21:53.033Z,44.05
2018-09-19T10:24:25.786Z,27.60
2018-09-19T10:26:58.458Z,38.92
2018-09-19T10:29:31.199Z,43.17
2018-09-19T10:32:04.467Z,38.55
2018-09-19T10:34:37.260Z,34.15
2018-09-19T10:37:10.943Z,36.15
2018-09-19T10:39:44.246Z,36.48
2018-09-19T10:42:17.085Z,39.58
2018-09-19T10:44:49.725Z,35.78
2018-09-19T10:47:22.488Z,34.00
2018-09-19T10:49:55.175Z,37.63
2018-09-19T10:52:27.883Z,33.50
2018-09-19T10:55:00.574Z,36.20
2018-09-19T10:57:33.239Z,31.68
2018-09-19T11:00:07.171Z,36.93
2018-09-19T11:02:39.827Z,37.73
2018-09-19T11:05:12.411Z,37.73
2018-09-19T11:07:45.304Z,38.78
2018-09-19T11:10:18.016Z,33.08
2018-09-19T11:12:50.729Z,38.53
2018-09-19T11:15:23.435Z,32.88
2018-09-19T11:17:56.084Z,38.05
2018-09-19T11:20:28.896Z,35.63
2018-09-19T11:23:01.542Z,38.35
2018-09-19T11:25:35.119Z,35.95
2018-09-19T11:28:07.792Z,36.45
2018-09-19T11:30:41.292Z,32.50
2018-09-19T11:33:13.999Z,37.03
2018-09-19T11:35:48.045Z,36.73
2018-09-19T11:38:20.968Z,34.10
2018-09-19T11:40:53.604Z,29.60
2018-09-19T11:43:26.370Z,30.75
2018-09-19T11:45:59.828Z,35.35
2018-09-19T11:48:32.510Z,32.15
2018-09-19T11:51:05.342Z,32.63
2018-09-19T11:53:38.019Z,34.70
2018-09-19T11:56:12.840Z,24.92
2018-09-19T11:58:46.017Z,32.98
2018-09-19T12:01:18.809Z,32.08
2018-09-19T12:03:51.468Z,35.30
2018-09-19T12:06:24.200Z,31.15
2018-09-19T12:08:56.914Z,33.15
2018-09-19T12:11:29.647Z,32.78
2018-09-19T12:14:02.312Z,34.92
2018-09-19T12:16:35.329Z,26.60
2018-09-19T12:19:08.142Z,27.90
2018-09-19T12:21:40.744Z,34.27
2018-09-19T12:24:13.468Z,32.10
2018-09-19T12:26:46.166Z,43.73
2018-09-19T12:29:19.357Z,35.10
2018-09-19T12:31:52.054Z,29.80
2018-09-19T12:34:24.771Z,28.23
2018-09-19T12:36:58.161Z,32.53
2018-09-19T12:39:31.060Z,39.25
2018-09-19T12:42:04.416Z,40.20
2018-09-19T12:44:37.210Z,38.48
2018-09-19T12:47:09.892Z,39.25
2018-09-19T12:49:42.582Z,37.85
2018-09-19T12:52:15.694Z,40.83
2018-09-19T12:54:48.647Z,42.60
2018-09-19T12:57:22.602Z,43.02
2018-09-19T12:59:55.286Z,38.90
2018-09-19T13:02:28.009Z,37.78
2018-09-19T13:05:01.719Z,28.27
2018-09-19T13:07:35.129Z,30.02
2018-09-19T13:10:07.986Z,39.50
2018-09-19T13:12:40.978Z,29.10
2018-09-19T13:15:13.887Z,25.45
2018-09-19T13:17:46.588Z,33.40
2018-09-19T13:20:19.352Z,35.23
2018-09-19T13:22:52.061Z,26.73
2018-09-19T13:25:24.755Z,30.05
2018-09-19T13:27:57.648Z,34.45
2018-09-19T13:30:30.305Z,44.13
2018-09-19T13:33:03.810Z,28.87
2018-09-19T13:35:37.224Z,34.25
2018-09-19T13:38:09.875Z,29.02
2018-09-19T13:40:42.594Z,43.60
2018-09-19T13:43:15.408Z,42.23
2018-09-19T13:45:48.205Z,36.03
2018-09-19T13:48:20.993Z,33.80
2018-09-19T13:50:59.794Z,41.10
2018-09-19T13:53:32.572Z,45.88
2018-09-19T13:56:05.368Z,37.60
2018-09-19T13:58:39.420Z,44.03
2018-09-19T14:01:15.552Z,36.93
2018-09-19T14:03:49.794Z,34.75
2018-09-19T14:06:23.631Z,32.95
2018-09-19T14:08:56.397Z,29.50
2018-09-19T14:11:29.073Z,36.68
2018-09-19T14:14:01.785Z,42.88
2018-09-19T14:16:34.682Z,31.30
2018-09-19T14:19:07.932Z,34.70
2018-09-19T14:21:41.562Z,42.58
2018-09-19T14:24:16.803Z,28.07
2018-09-19T14:26:49.861Z,29.07
2018-09-19T14:29:23.191Z,35.17
2018-09-19T14:31:58.947Z,31.55
2018-09-19T14:34:31.902Z,33.30
2018-09-19T14:37:07.727Z,28.60
2018-09-19T14:39:42.179Z,30.65
2018-09-19T14:42:15.905Z,32.03
2018-09-19T14:44:51.664Z,35.95
2018-09-19T14:47:29.791Z,33.10
2018-09-19T14:50:02.678Z,38.55
2018-09-19T14:52:35.472Z,40.35
2018-09-19T14:55:08.996Z,25.10
2018-09-19T14:57:42.076Z,39.50
2018-09-19T15:00:15.675Z,38.63
2018-09-19T15:02:50.066Z,33.53
2018-09-19T15:05:27.696Z,26.65
2018-09-19T15:08:07.336Z,34.18
2018-09-19T15:10:41.053Z,31.40
2018-09-19T15:13:15.754Z,25.43
2018-09-19T15:15:51.420Z,27.90
2018-09-19T15:18:24.238Z,30.82
2018-09-19T15:20:56.994Z,36.73
2018-09-19T15:23:29.682Z,30.52
2018-09-19T15:26:03.206Z,24.40
2018-09-19T15:28:36.071Z,32.23
2018-09-19T15:31:08.834Z,24.23
2018-09-19T15:33:43.503Z,27.58
2018-09-19T15:36:16.235Z,26.65
2018-09-19T15:38:48.920Z,28.55
2018-09-19T15:41:21.836Z,31.52
2018-09-19T15:43:54.586Z,37.90
2018-09-19T15:46:27.268Z,32.33
2018-09-19T15:49:00.324Z,35.03
2018-09-19T15:51:33.056Z,30.62
2018-09-19T15:54:05.784Z,27.25
2018-09-19T15:56:38.512Z,28.15
2018-09-19T15:59:11.190Z,23.95
2018-09-19T16:01:43.888Z,25.45
2018-09-19T16:04:16.968Z,29.50
2018-09-19T16:06:50.046Z,29.85
2018-09-19T16:09:22.720Z,29.02
2018-09-19T16:11:55.464Z,24.10
2018-09-19T16:14:28.199Z,26.85
2018-09-19T16:17:00.918Z,30.27
2018-09-19T16:19:33.911Z,31.77
2018-09-19T16:22:06.611Z,22.55
2018-09-19T16:24:39.354Z,36.73
2018-09-19T16:27:12.122Z,29.90
2018-09-19T16:29:44.951Z,23.98
2018-09-19T16:32:18.519Z,26.50
2018-09-19T16:34:53.117Z,28.75
2018-09-19T16:37:25.785Z,28.25
2018-09-19T16:39:58.530Z,28.23
2018-09-19T16:42:31.175Z,27.37
2018-09-19T16:45:04.545Z,27.40
2018-09-19T16:47:37.338Z,35.88
2018-09-19T16:50:10.252Z,33.05
2018-09-19T16:52:44.008Z,21.33
2018-09-19T16:55:17.915Z,24.52
2018-09-19T16:57:50.706Z,34.10
2018-09-19T17:23:41.103Z,29.07
2018-09-19T17:28:56.348Z,27.98
2018-09-19T17:31:37.058Z,27.10
2018-09-19T17:34:11.491Z,23.90
2018-09-19T17:36:45.582Z,23.55
2018-09-19T17:39:20.172Z,23.57
2018-09-19T17:41:53.633Z,35.15
2018-09-19T17:44:27.533Z,33.50
2018-09-19T17:47:00.527Z,25.82
2018-09-19T17:49:39.809Z,28.40
2018-09-19T17:52:15.032Z,22.07
2018-09-19T17:54:48.914Z,31.12
2018-09-19T17:57:23.814Z,22.07
2018-09-19T17:59:58.874Z,34.53
2018-09-19T18:02:32.834Z,32.58
2018-09-19T18:05:07.704Z,25.80
2018-09-19T18:07:40.672Z,25.90
2018-09-19T18:10:13.938Z,30.65
2018-09-19T18:12:47.306Z,28.15
2018-09-19T18:15:23.799Z,25.50
2018-09-19T18:17:56.893Z,19.48
2018-09-19T18:20:29.757Z,29.72
2018-09-19T18:23:07.259Z,26.65
2018-09-19T18:25:43.071Z,29.07
2018-09-19T18:28:16.873Z,29.35
2018-09-19T18:30:49.873Z,27.30
2018-09-19T18:33:23.388Z,22.02
2018-09-19T18:35:58.355Z,27.20
2018-09-19T18:38:32.749Z,21.20
2018-09-19T18:41:08.881Z,24.20
2018-09-19T18:43:43.257Z,24.12
2018-09-19T18:46:17.362Z,26.85
2018-09-19T18:48:50.640Z,32.95
2018-09-19T18:51:24.734Z,20.88
2018-09-19T18:53:58.511Z,24.63
2018-09-19T18:56:32.605Z,25.80
2018-09-19T18:59:08.332Z,33.08
2018-09-19T19:01:41.270Z,22.00
2018-09-19T19:07:29.691Z,24.10
2018-09-19T19:10:04.397Z,25.32
2018-09-19T19:12:39.764Z,27.22
2018-09-19T19:15:16.327Z,32.78
2018-09-19T19:17:52.425Z,23.32
2018-09-19T19:20:28.717Z,20.65
2018-09-19T19:23:02.208Z,22.00
2018-09-19T19:25:35.666Z,26.97
2018-09-19T19:28:09.305Z,19.82
2018-09-19T19:30:42.378Z,22.10
2018-09-19T19:33:15.526Z,28.62
2018-09-19T19:35:49.315Z,23.42
2018-09-19T19:38:24.252Z,27.30
2018-09-19T19:41:04.875Z,22.77
2018-09-19T19:43:38.875Z,18.95
2018-09-19T19:46:11.853Z,16.55
2018-09-19T19:48:45.634Z,19.32
2018-09-19T19:51:18.866Z,17.27
2018-09-19T19:53:53.005Z,32.15
2018-09-19T19:56:25.912Z,26.27
2018-09-19T19:58:59.435Z,17.73
2018-09-19T20:01:32.267Z,26.80
2018-09-19T20:04:05.769Z,19.95
2018-09-19T20:06:38.877Z,18.30
2018-09-19T20:09:16.366Z,23.18
2018-09-19T20:11:50.055Z,16.30
2018-09-19T20:14:24.645Z,18.40
2018-09-19T20:17:00.113Z,16.80
2018-09-19T20:19:34.053Z,24.63
2018-09-19T20:22:08.736Z,14.80
2018-09-19T20:24:43.200Z,17.52
2018-09-19T20:27:22.537Z,14.83
2018-09-19T20:29:56.567Z,17.00
2018-09-19T20:32:29.823Z,15.68
2018-09-19T20:35:02.533Z,21.77
2018-09-19T20:37:35.684Z,20.65
2018-09-19T20:40:09.319Z,17.85
2018-09-19T20:42:42.077Z,13.83
2018-09-19T20:45:14.868Z,14.68
2018-09-19T20:47:47.591Z,23.22
2018-09-19T20:50:20.858Z,18.25
2018-09-19T20:52:53.560Z,17.67
2018-09-19T20:55:26.286Z,21.65
2018-09-19T20:57:58.956Z,19.92
2018-09-19T21:00:31.801Z,19.20
2018-09-19T21:03:04.414Z,14.33
2018-09-19T21:05:37.098Z,17.48
2018-09-19T21:08:09.761Z,22.70
2018-09-19T21:10:42.415Z,15.38
2018-09-19T21:13:15.110Z,18.60
2018-09-19T21:15:47.872Z,15.05
2018-09-19T21:18:20.501Z,16.90
2018-09-19T21:20:53.208Z,16.70
2018-09-19T21:23:26.480Z,15.65
2018-09-19T21:25:59.087Z,16.65
2018-09-19T21:28:31.851Z,19.10
2018-09-19T21:31:05.060Z,14.10
2018-09-19T21:33:37.714Z,14.63
2018-09-19T21:36:10.450Z,13.53
2018-09-19T21:38:44.153Z,17.45
2018-09-19T21:41:16.773Z,21.37
2018-09-19T21:43:50.500Z,16.02
2018-09-19T21:46:23.113Z,18.30
2018-09-19T21:48:56.059Z,18.98
2018-09-19T21:51:28.705Z,18.12
2018-09-19T21:54:01.720Z,18.15
2018-09-19T21:56:34.333Z,21.75
2018-09-19T21:59:07.596Z,15.48
2018-09-19T22:01:40.884Z,20.70
2018-09-19T22:04:13.564Z,22.70
2018-09-19T22:06:46.604Z,14.93
2018-09-19T22:09:19.660Z,23.57
2018-09-19T22:11:52.260Z,14.53
2018-09-19T22:14:24.971Z,21.57
2018-09-19T22:16:57.687Z,21.77
2018-09-19T22:19:30.623Z,17.42
2018-09-19T22:22:04.182Z,16.77
2018-09-19T22:24:37.398Z,21.57
2018-09-19T22:27:10.016Z,19.37
2018-09-19T22:29:42.716Z,19.55
2018-09-19T22:32:16.367Z,23.22
2018-09-19T22:34:49.313Z,27.32
2018-09-19T22:37:23.657Z,18.48
2018-09-19T22:39:56.310Z,18.87
2018-09-19T22:42:28.989Z,19.37
2018-09-19T22:45:01.611Z,21.27
2018-09-19T22:47:34.267Z,21.25
2018-09-19T22:50:07.254Z,27.93
2018-09-19T22:52:40.949Z,19.95
2018-09-19T22:55:16.562Z,18.12
2018-09-19T22:57:49.521Z,25.48
2018-09-19T23:00:23.259Z,19.25
2018-09-19T23:02:56.684Z,21.00
2018-09-19T23:05:29.329Z,23.42
2018-09-19T23:08:02.002Z,17.67
2018-09-19T23:10:34.639Z,21.68
2018-09-19T23:13:07.856Z,25.50
2018-09-19T23:15:40.768Z,18.00
2018-09-19T23:18:13.410Z,20.52
2018-09-19T23:20:46.647Z,26.75
2018-09-19T23:23:19.288Z,18.60
2018-09-19T23:25:51.919Z,23.47
2018-09-19T23:28:24.725Z,27.77
2018-09-19T23:30:57.324Z,22.22
2018-09-19T23:33:39.617Z,22.93
